Duzgit Venture — 9HA2020 — position and weather

sailwx.info

Track history (hours):
 
Tides and Currents Weather Stations Pressure Air Temp Water Temp Dewpoint Dewpoint Depression Visibility Wind Speed Wind Dir Waves Ship Positions

Duzgit Venture

Last reported at 2017-Nov-02 03:07 UTC. Time now 2017-Nov-19 20:05 UTC.
Position N 01°14' E 104°03'.
Warning: this ship's position is 17 days out of date.

Length 89 m; draft 5.7 m.

Type: Tanker. MMSI: 249817000.

Date/timePositionNaut miles runAvg speedWind from/ knotsBaromVisibWave heightAir tempDewpointWater temp
2017-Nov-02 03:07N 01°14' E 104°03'110.4
2017-Nov-02 03:00N 01°14' E 104°01'510.1
2017-Nov-02 02:30N 01°13' E 103°57'510.1
2017-Nov-02 02:01N 01°11' E 103°52'5 9.1
2017-Nov-02 01:30N 01°10' E 103°48'5 9.0
2017-Nov-02 00:59N 01°06' E 103°45'5 9.3
2017-Nov-02 00:30N 01°04' E 103°41'5 9.5
2017-Nov-01 23:58N 01°05' E 103°36'4 9.2
2017-Nov-01 23:30N 01°08' E 103°32'4 8.9
2017-Nov-01 23:01N 01°11' E 103°35'4 8.2
2017-Nov-01 22:30N 01°12' E 103°39'2 3.0
2017-Nov-01 21:53N 01°14' E 103°39'0 0.0
2017-Nov-01 21:05N 01°14' E 103°39'0 0.0
2017-Nov-01 20:35N 01°14' E 103°39'0 0.0
2017-Nov-01 20:26N 01°14' E 103°39'0 0.0
2017-Nov-01 18:11N 01°14' E 103°39'0 0.0
2017-Nov-01 01:53N 01°14' E 103°39'0 0.0
2017-Nov-01 01:26N 01°14' E 103°39'0 0.1
2017-Nov-01 00:59N 01°14' E 103°39'0 0.1
2017-Nov-01 00:29N 01°14' E 103°39'0 0.1
2017-Oct-31 23:59N 01°14' E 103°39'0 0.0
2017-Oct-31 23:29N 01°14' E 103°39'0 0.0
2017-Oct-31 22:56N 01°14' E 103°39'0 0.0
2017-Oct-31 22:29N 01°14' E 103°39'0 0.0
2017-Oct-31 21:56N 01°14' E 103°39'0 0.0
2017-Oct-31 21:23N 01°14' E 103°39'0 0.2
2017-Oct-31 20:56N 01°14' E 103°39'0 0.0
2017-Oct-31 20:29N 01°14' E 103°39'0 0.0
2017-Oct-31 19:44N 01°14' E 103°39'0 0.0
2017-Oct-31 19:17N 01°14' E 103°39'0 0.0
2017-Oct-31 18:50N 01°14' E 103°39'0 0.1
2017-Oct-31 18:26N 01°14' E 103°39'1 2.8
2017-Oct-31 18:01N 01°13' E 103°40'2 4.4
2017-Oct-31 17:30N 01°15' E 103°41'0 0.0
2017-Oct-31 16:57N 01°15' E 103°41'0 0.0
2017-Oct-31 16:30N 01°15' E 103°41'0 0.0
2017-Oct-31 15:54N 01°15' E 103°41'0 0.0
2017-Oct-31 15:27N 01°15' E 103°41'0 0.0
2017-Oct-31 14:54N 01°15' E 103°41'0 0.0
2017-Oct-31 14:30N 01°15' E 103°41'0 0.0
2017-Oct-31 13:51N 01°15' E 103°41'0 0.0
2017-Oct-31 13:30N 01°15' E 103°41'0 0.0
2017-Oct-31 12:57N 01°15' E 103°41'0 0.0
2017-Oct-31 12:27N 01°15' E 103°41'0 0.0
2017-Oct-31 11:39N 01°15' E 103°41'0 0.0
2017-Oct-31 11:18N 01°15' E 103°41'0 0.0
2017-Oct-31 10:48N 01°15' E 103°41'0 0.0
2017-Oct-31 10:24N 01°15' E 103°41'0 0.0
2017-Oct-31 09:15N 01°15' E 103°41'0 0.0
2017-Oct-31 09:00N 01°15' E 103°41'0 0.0
2017-Oct-31 08:27N 01°15' E 103°41'0 0.0
2017-Oct-31 07:54N 01°15' E 103°41'0 0.0
2017-Oct-31 06:54N 01°15' E 103°41'0 0.0
2017-Oct-31 06:30N 01°15' E 103°41'0 0.0
2017-Oct-31 05:57N 01°15' E 103°41'0 0.0
2017-Oct-31 05:27N 01°15' E 103°41'0 0.0
2017-Oct-31 04:57N 01°15' E 103°41'0 0.0
2017-Oct-31 03:45N 01°15' E 103°41'0 0.0
2017-Oct-31 03:24N 01°15' E 103°41'0 0.0
2017-Oct-31 02:54N 01°15' E 103°41'0 0.0
2017-Oct-31 02:18N 01°15' E 103°41'0 0.0
2017-Oct-31 01:57N 01°15' E 103°41'0 0.0
2017-Oct-31 01:15N 01°15' E 103°41'0 0.0
2017-Oct-31 00:54N 01°15' E 103°41'0 0.0
2017-Oct-31 00:30N 01°15' E 103°41'0 0.0
2017-Oct-30 23:57N 01°15' E 103°41'0 0.0
2017-Oct-30 23:30N 01°15' E 103°41'0 0.0
2017-Oct-30 22:33N 01°15' E 103°41'0 0.0
2017-Oct-30 22:24N 01°15' E 103°41'0 0.0
2017-Oct-30 19:09N 01°15' E 103°41'0 0.0
2017-Oct-30 18:57N 01°15' E 103°41'0 0.0
2017-Oct-30 17:18N 01°15' E 103°41'0 0.0
2017-Oct-30 16:48N 01°15' E 103°41'0 0.0
2017-Oct-30 16:30N 01°15' E 103°41'0 0.0
2017-Oct-30 14:12N 01°15' E 103°41'0 0.0
2017-Oct-30 09:45N 01°15' E 103°41'0 0.0
2017-Oct-30 09:30N 01°15' E 103°41'0 0.0
2017-Oct-30 08:57N 01°15' E 103°41'0 0.0
2017-Oct-30 08:30N 01°15' E 103°41'0 0.0
2017-Oct-30 07:54N 01°15' E 103°41'0 0.0
2017-Oct-30 07:24N 01°15' E 103°41'0 0.0
2017-Oct-30 06:54N 01°15' E 103°41'0 0.0
2017-Oct-30 06:30N 01°15' E 103°41'0 0.0
2017-Oct-30 05:48N 01°15' E 103°41'0 0.0
2017-Oct-30 04:36N 01°15' E 103°41'0 0.0
2017-Oct-30 04:30N 01°15' E 103°41'0 0.0
2017-Oct-30 03:54N 01°15' E 103°41'0 0.0
2017-Oct-30 03:30N 01°15' E 103°41'0 0.0
2017-Oct-30 02:54N 01°15' E 103°41'0 0.0
2017-Oct-30 02:06N 01°15' E 103°41'0 0.0
2017-Oct-30 01:48N 01°15' E 103°41'0 0.0
2017-Oct-30 01:21N 01°15' E 103°41'0 0.0
2017-Oct-30 00:54N 01°15' E 103°41'0 0.0
2017-Oct-30 00:27N 01°15' E 103°41'0 0.0
2017-Oct-29 23:39N 01°15' E 103°41'0 0.0
2017-Oct-29 23:30N 01°15' E 103°41'0 0.0
2017-Oct-29 22:57N 01°15' E 103°41'0 0.0
2017-Oct-29 22:30N 01°15' E 103°41'0 0.0
2017-Oct-29 21:51N 01°15' E 103°41'0 0.0
2017-Oct-29 21:30N 01°15' E 103°41'0 0.0
2017-Oct-29 20:54N 01°15' E 103°41'0 0.0
2017-Oct-29 20:12N 01°15' E 103°41'0 0.0
2017-Oct-29 19:48N 01°15' E 103°41'0 0.0
2017-Oct-29 19:21N 01°15' E 103°41'0 0.0
2017-Oct-29 18:18N 01°15' E 103°41'0 0.0
2017-Oct-29 17:57N 01°15' E 103°41'0 0.0
2017-Oct-29 17:21N 01°15' E 103°41'0 0.0
2017-Oct-29 16:51N 01°15' E 103°41'0 0.0
2017-Oct-29 16:24N 01°15' E 103°41'0 0.0
2017-Oct-29 15:57N 01°15' E 103°41'0 0.0
2017-Oct-29 15:30N 01°15' E 103°41'0 0.0
2017-Oct-29 14:54N 01°15' E 103°41'0 0.0
2017-Oct-29 14:24N 01°15' E 103°41'0 0.0
2017-Oct-29 13:57N 01°15' E 103°41'0 0.0
2017-Oct-29 13:27N 01°15' E 103°41'0 0.0
2017-Oct-29 12:51N 01°15' E 103°41'0 0.0
2017-Oct-29 11:59N 01°15' E 103°41'0 0.0
2017-Oct-29 11:30N 01°15' E 103°41'1 1.9
2017-Oct-29 11:01N 01°14' E 103°42'3 6.8
2017-Oct-29 10:30N 01°13' E 103°38'0 0.9
2017-Oct-29 09:59N 01°13' E 103°38'0 0.1
2017-Oct-29 08:45N 01°13' E 103°38'0 0.1
2017-Oct-29 08:12N 01°13' E 103°38'0 0.0
2017-Oct-29 08:00N 01°13' E 103°38'0 0.0
2017-Oct-29 07:21N 01°13' E 103°38'0 0.0
2017-Oct-29 07:00N 01°13' E 103°38'0 0.0
2017-Oct-29 06:30N 01°13' E 103°38'0 0.1
2017-Oct-29 05:51N 01°14' E 103°38'0 0.0
2017-Oct-29 05:27N 01°14' E 103°38'0 0.0
2017-Oct-29 04:57N 01°14' E 103°38'0 0.0
2017-Oct-29 04:30N 01°13' E 103°38'0 0.0
2017-Oct-29 03:48N 01°13' E 103°38'0 0.0
2017-Oct-28 19:00N 01°13' E 103°38'0 0.0
2017-Oct-28 16:24N 01°13' E 103°38'0 0.0
2017-Oct-28 15:51N 01°13' E 103°38'0 0.0
2017-Oct-28 15:27N 01°13' E 103°38'0 0.1
2017-Oct-28 14:42N 01°13' E 103°38'0 0.2
2017-Oct-28 14:24N 01°13' E 103°38'0 0.0
2017-Oct-28 11:45N 01°13' E 103°38'0 0.0
2017-Oct-28 10:03N 01°13' E 103°38'0 0.1
2017-Oct-28 09:51N 01°13' E 103°38'0 0.0
2017-Oct-28 09:30N 01°13' E 103°38'0 0.0
2017-Oct-28 08:33N 01°13' E 103°38'0 0.0
2017-Oct-28 08:21N 01°13' E 103°38'0 0.0
2017-Oct-28 07:57N 01°13' E 103°38'0 0.0
2017-Oct-28 07:09N 01°13' E 103°38'0 0.0
2017-Oct-28 06:48N 01°13' E 103°38'0 0.0
2017-Oct-28 06:30N 01°13' E 103°38'0 0.0
2017-Oct-28 05:48N 01°13' E 103°38'0 0.0
2017-Oct-28 05:27N 01°13' E 103°38'0 0.0
2017-Oct-28 04:24N 01°13' E 103°38'0 0.0
2017-Oct-28 03:36N 01°13' E 103°38'0 0.0
2017-Oct-28 03:27N 01°13' E 103°38'0 0.1
2017-Oct-28 02:48N 01°13' E 103°38'0 0.1
2017-Oct-28 02:15N 01°13' E 103°38'0 0.0
2017-Oct-28 01:54N 01°13' E 103°38'0 0.1
2017-Oct-28 01:27N 01°13' E 103°38'0 0.0
2017-Oct-28 00:39N 01°13' E 103°38'0 0.0
2017-Oct-28 00:27N 01°13' E 103°38'0 0.0
2017-Oct-27 23:54N 01°13' E 103°38'0 0.0
2017-Oct-27 22:18N 01°13' E 103°38'0 0.0
2017-Oct-27 21:54N 01°13' E 103°38'0 0.0
2017-Oct-27 20:42N 01°13' E 103°38'0 0.0
2017-Oct-27 20:27N 01°13' E 103°38'0 0.0
2017-Oct-27 19:57N 01°13' E 103°38'0 0.0
2017-Oct-27 19:27N 01°13' E 103°38'0 0.0
2017-Oct-27 18:51N 01°13' E 103°38'0 0.0
2017-Oct-27 16:48N 01°13' E 103°38'0 0.0
2017-Oct-27 15:33N 01°13' E 103°38'0 0.0
2017-Oct-27 14:15N 01°13' E 103°38'0 0.0
2017-Oct-27 13:27N 01°13' E 103°38'0 0.1
2017-Oct-27 12:42N 01°13' E 103°38'0 0.0
2017-Oct-27 11:42N 01°13' E 103°38'0 0.2
2017-Oct-27 11:27N 01°13' E 103°38'0 0.1
2017-Oct-27 10:54N 01°13' E 103°38'0 0.0
2017-Oct-27 10:15N 01°13' E 103°38'0 0.0
2017-Oct-27 09:42N 01°13' E 103°38'0 0.0
2017-Oct-27 09:24N 01°13' E 103°38'0 0.0
2017-Oct-27 08:57N 01°13' E 103°38'0 0.0
2017-Oct-27 08:24N 01°13' E 103°38'0 0.0
2017-Oct-27 07:57N 01°13' E 103°38'0 0.0
2017-Oct-27 06:51N 01°13' E 103°38'0 0.0
2017-Oct-27 06:27N 01°13' E 103°38'0 0.0
2017-Oct-27 05:51N 01°13' E 103°38'0 0.0
2017-Oct-27 05:21N 01°13' E 103°38'0 0.0
2017-Oct-27 04:57N 01°13' E 103°38'0 0.1
2017-Oct-27 04:30N 01°13' E 103°38'0 0.0
2017-Oct-27 03:57N 01°13' E 103°38'0 0.0
2017-Oct-27 03:30N 01°13' E 103°38'0 0.0
2017-Oct-27 02:54N 01°14' E 103°38'0 0.0
2017-Oct-27 02:30N 01°14' E 103°38'0 0.0
2017-Oct-27 01:54N 01°14' E 103°38'0 0.0
2017-Oct-27 01:27N 01°13' E 103°38'0 0.0
2017-Oct-26 23:48N 01°13' E 103°38'0 0.0
2017-Oct-26 23:21N 01°13' E 103°38'0 0.2
2017-Oct-26 22:57N 01°13' E 103°38'0 0.1
2017-Oct-26 22:27N 01°13' E 103°38'0 0.0
2017-Oct-26 21:54N 01°13' E 103°38'0 0.0
2017-Oct-26 21:18N 01°13' E 103°38'0 0.0
2017-Oct-26 20:36N 01°13' E 103°38'0 0.1
2017-Oct-26 20:12N 01°13' E 103°38'0 0.2
2017-Oct-26 19:51N 01°13' E 103°38'0 0.1
2017-Oct-26 19:21N 01°13' E 103°38'0 0.0
2017-Oct-26 18:57N 01°13' E 103°38'0 0.1
2017-Oct-26 18:27N 01°13' E 103°38'0 0.1
2017-Oct-26 17:57N 01°13' E 103°38'0 0.1
2017-Oct-26 16:48N 01°13' E 103°38'0 0.0
2017-Oct-26 16:24N 01°13' E 103°38'0 0.1
2017-Oct-26 15:51N 01°13' E 103°38'0 0.2
2017-Oct-26 15:27N 01°13' E 103°38'0 0.0
2017-Oct-26 14:39N 01°13' E 103°38'0 0.0
2017-Oct-26 14:15N 01°13' E 103°38'0 0.0
2017-Oct-26 13:54N 01°13' E 103°38'0 0.0
2017-Oct-26 13:06N 01°13' E 103°38'0 0.0
2017-Oct-26 12:39N 01°13' E 103°38'0 0.0
2017-Oct-26 12:21N 01°13' E 103°38'0 0.0
2017-Oct-26 11:12N 01°13' E 103°38'0 0.0
2017-Oct-26 09:39N 01°13' E 103°38'0 0.0
2017-Oct-26 09:30N 01°13' E 103°38'0 0.0
2017-Oct-26 08:57N 01°13' E 103°38'0 0.0
2017-Oct-26 07:54N 01°13' E 103°38'0 0.0
2017-Oct-26 07:27N 01°13' E 103°38'0 0.1
2017-Oct-26 06:57N 01°13' E 103°38'0 0.0
2017-Oct-26 06:27N 01°14' E 103°38'0 0.0
2017-Oct-26 05:57N 01°13' E 103°38'0 0.0
2017-Oct-26 05:30N 01°14' E 103°38'0 0.0
2017-Oct-26 04:51N 01°13' E 103°38'0 0.0
2017-Oct-26 04:30N 01°14' E 103°38'0 0.0
2017-Oct-26 04:00N 01°14' E 103°38'0 0.0
2017-Oct-26 03:30N 01°13' E 103°38'0 0.1
2017-Oct-26 02:57N 01°13' E 103°38'0 0.0
2017-Oct-26 02:21N 01°13' E 103°38'0 0.0
2017-Oct-26 01:57N 01°13' E 103°38'0 0.0
2017-Oct-26 01:30N 01°13' E 103°38'0 0.0
2017-Oct-26 00:51N 01°13' E 103°38'0 0.1
2017-Oct-26 00:15N 01°13' E 103°38'0 0.0
2017-Oct-25 23:54N 01°13' E 103°38'0 0.0
2017-Oct-25 23:30N 01°13' E 103°38'0 0.0
2017-Oct-25 22:57N 01°13' E 103°38'0 0.0
2017-Oct-25 22:18N 01°13' E 103°38'0 0.0
2017-Oct-25 21:54N 01°13' E 103°38'0 0.0
2017-Oct-25 21:27N 01°13' E 103°38'0 0.0
2017-Oct-25 20:54N 01°13' E 103°38'0 0.0
2017-Oct-25 20:27N 01°13' E 103°38'0 0.0
2017-Oct-25 19:57N 01°13' E 103°38'0 0.1
2017-Oct-25 19:27N 01°13' E 103°38'0 0.1
2017-Oct-25 18:54N 01°13' E 103°38'0 0.0
2017-Oct-25 18:21N 01°13' E 103°38'0 0.0
2017-Oct-25 17:54N 01°13' E 103°38'0 0.0
2017-Oct-25 17:27N 01°13' E 103°38'0 0.1
2017-Oct-25 16:54N 01°13' E 103°38'0 0.0
2017-Oct-25 16:30N 01°13' E 103°38'0 0.0
2017-Oct-25 15:51N 01°13' E 103°38'0 0.0
2017-Oct-25 15:27N 01°13' E 103°38'0 0.0
2017-Oct-25 14:57N 01°13' E 103°38'0 0.0
2017-Oct-25 14:30N 01°13' E 103°38'0 0.1
2017-Oct-25 13:51N 01°13' E 103°38'0 0.0
2017-Oct-25 13:30N 01°13' E 103°38'0 0.1
2017-Oct-25 12:57N 01°13' E 103°38'0 0.0
2017-Oct-25 12:30N 01°13' E 103°38'0 0.0
2017-Oct-25 11:57N 01°13' E 103°38'0 0.0
2017-Oct-25 11:30N 01°13' E 103°38'0 0.0
2017-Oct-25 10:57N 01°13' E 103°38'0 0.2
2017-Oct-25 10:12N 01°13' E 103°38'0 0.0
2017-Oct-25 09:57N 01°13' E 103°38'0 0.0
2017-Oct-25 09:30N 01°13' E 103°38'0 0.0
2017-Oct-25 08:30N 01°13' E 103°38'0 0.0
2017-Oct-25 07:54N 01°13' E 103°38'0 0.0
2017-Oct-25 07:24N 01°13' E 103°38'0 0.1
2017-Oct-25 06:57N 01°13' E 103°38'0 0.0
2017-Oct-25 06:27N 01°13' E 103°38'0 0.1
2017-Oct-25 05:57N 01°13' E 103°38'0 0.0
2017-Oct-25 05:30N 01°13' E 103°38'0 0.0
2017-Oct-25 04:57N 01°13' E 103°38'0 0.0
2017-Oct-25 04:24N 01°13' E 103°38'0 0.1
2017-Oct-25 03:51N 01°13' E 103°38'0 0.1
2017-Oct-25 03:24N 01°13' E 103°38'0 0.0
2017-Oct-25 02:51N 01°13' E 103°38'0 0.0
2017-Oct-25 02:30N 01°13' E 103°38'0 0.0
2017-Oct-25 01:57N 01°13' E 103°38'0 0.0
2017-Oct-25 01:30N 01°13' E 103°38'0 0.0
2017-Oct-25 00:57N 01°13' E 103°38'0 0.0
2017-Oct-25 00:24N 01°13' E 103°38'0 0.0
2017-Oct-24 23:45N 01°13' E 103°38'0 0.0
2017-Oct-24 23:30N 01°13' E 103°38'0 0.0
2017-Oct-24 22:48N 01°13' E 103°38'0 0.0
2017-Oct-24 22:27N 01°13' E 103°38'0 0.0
2017-Oct-24 21:42N 01°13' E 103°38'0 0.0
2017-Oct-24 21:30N 01°13' E 103°38'0 0.0
2017-Oct-24 20:57N 01°13' E 103°38'0 0.0
2017-Oct-24 20:30N 01°13' E 103°38'0 0.0
2017-Oct-24 19:54N 01°13' E 103°38'0 0.0
2017-Oct-24 19:30N 01°13' E 103°38'0 0.0
2017-Oct-24 18:57N 01°13' E 103°38'0 0.0
2017-Oct-24 18:27N 01°13' E 103°38'0 0.0
2017-Oct-24 17:59N 01°13' E 103°38'1 1.2
2017-Oct-24 17:29N 01°13' E 103°38'2 4.7
2017-Oct-24 17:00N 01°12' E 103°36'1 1.7
2017-Oct-24 16:30N 01°12' E 103°35'3 5.7
2017-Oct-24 15:59N 01°12' E 103°33'3 5.8
2017-Oct-24 15:30N 01°11' E 103°30'  
Track history (hours):
 
Tides and Currents Weather Stations Pressure Air Temp Water Temp Dewpoint Dewpoint Depression Visibility Wind Speed Wind Dir Waves Ship Positions

Duzgit Venture

Last reported at 2017-Nov-02 03:07 UTC. Time now 2017-Nov-19 20:05 UTC.
Position N 01°14' E 104°03'.
Warning: this ship's position is 17 days out of date.

Length 89 m; draft 5.7 m.

Type: Tanker. MMSI: 249817000.

Date/timePositionNaut miles runAvg speedWind from/ knotsBaromVisibWave heightAir tempDewpointWater temp
2017-Nov-02 03:07N 01°14' E 104°03'110.4
2017-Nov-02 03:00N 01°14' E 104°01'510.1
2017-Nov-02 02:30N 01°13' E 103°57'510.1
2017-Nov-02 02:01N 01°11' E 103°52'5 9.1
2017-Nov-02 01:30N 01°10' E 103°48'5 9.0
2017-Nov-02 00:59N 01°06' E 103°45'5 9.3
2017-Nov-02 00:30N 01°04' E 103°41'5 9.5
2017-Nov-01 23:58N 01°05' E 103°36'4 9.2
2017-Nov-01 23:30N 01°08' E 103°32'4 8.9
2017-Nov-01 23:01N 01°11' E 103°35'4 8.2
2017-Nov-01 22:30N 01°12' E 103°39'2 3.0
2017-Nov-01 21:53N 01°14' E 103°39'0 0.0
2017-Nov-01 21:05N 01°14' E 103°39'0 0.0
2017-Nov-01 20:35N 01°14' E 103°39'0 0.0
2017-Nov-01 20:26N 01°14' E 103°39'0 0.0
2017-Nov-01 18:11N 01°14' E 103°39'0 0.0
2017-Nov-01 01:53N 01°14' E 103°39'0 0.0
2017-Nov-01 01:26N 01°14' E 103°39'0 0.1
2017-Nov-01 00:59N 01°14' E 103°39'0 0.1
2017-Nov-01 00:29N 01°14' E 103°39'0 0.1
2017-Oct-31 23:59N 01°14' E 103°39'0 0.0
2017-Oct-31 23:29N 01°14' E 103°39'0 0.0
2017-Oct-31 22:56N 01°14' E 103°39'0 0.0
2017-Oct-31 22:29N 01°14' E 103°39'0 0.0
2017-Oct-31 21:56N 01°14' E 103°39'0 0.0
2017-Oct-31 21:23N 01°14' E 103°39'0 0.2
2017-Oct-31 20:56N 01°14' E 103°39'0 0.0
2017-Oct-31 20:29N 01°14' E 103°39'0 0.0
2017-Oct-31 19:44N 01°14' E 103°39'0 0.0
2017-Oct-31 19:17N 01°14' E 103°39'0 0.0
2017-Oct-31 18:50N 01°14' E 103°39'0 0.1
2017-Oct-31 18:26N 01°14' E 103°39'1 2.8
2017-Oct-31 18:01N 01°13' E 103°40'2 4.4
2017-Oct-31 17:30N 01°15' E 103°41'0 0.0
2017-Oct-31 16:57N 01°15' E 103°41'0 0.0
2017-Oct-31 16:30N 01°15' E 103°41'0 0.0
2017-Oct-31 15:54N 01°15' E 103°41'0 0.0
2017-Oct-31 15:27N 01°15' E 103°41'0 0.0
2017-Oct-31 14:54N 01°15' E 103°41'0 0.0
2017-Oct-31 14:30N 01°15' E 103°41'0 0.0
2017-Oct-31 13:51N 01°15' E 103°41'0 0.0
2017-Oct-31 13:30N 01°15' E 103°41'0 0.0
2017-Oct-31 12:57N 01°15' E 103°41'0 0.0
2017-Oct-31 12:27N 01°15' E 103°41'0 0.0
2017-Oct-31 11:39N 01°15' E 103°41'0 0.0
2017-Oct-31 11:18N 01°15' E 103°41'0 0.0
2017-Oct-31 10:48N 01°15' E 103°41'0 0.0
2017-Oct-31 10:24N 01°15' E 103°41'0 0.0
2017-Oct-31 09:15N 01°15' E 103°41'0 0.0
2017-Oct-31 09:00N 01°15' E 103°41'0 0.0
2017-Oct-31 08:27N 01°15' E 103°41'0 0.0
2017-Oct-31 07:54N 01°15' E 103°41'0 0.0
2017-Oct-31 06:54N 01°15' E 103°41'0 0.0
2017-Oct-31 06:30N 01°15' E 103°41'0 0.0
2017-Oct-31 05:57N 01°15' E 103°41'0 0.0
2017-Oct-31 05:27N 01°15' E 103°41'0 0.0
2017-Oct-31 04:57N 01°15' E 103°41'0 0.0
2017-Oct-31 03:45N 01°15' E 103°41'0 0.0
2017-Oct-31 03:24N 01°15' E 103°41'0 0.0
2017-Oct-31 02:54N 01°15' E 103°41'0 0.0
2017-Oct-31 02:18N 01°15' E 103°41'0 0.0
2017-Oct-31 01:57N 01°15' E 103°41'0 0.0
2017-Oct-31 01:15N 01°15' E 103°41'0 0.0
2017-Oct-31 00:54N 01°15' E 103°41'0 0.0
2017-Oct-31 00:30N 01°15' E 103°41'0 0.0
2017-Oct-30 23:57N 01°15' E 103°41'0 0.0
2017-Oct-30 23:30N 01°15' E 103°41'0 0.0
2017-Oct-30 22:33N 01°15' E 103°41'0 0.0
2017-Oct-30 22:24N 01°15' E 103°41'0 0.0
2017-Oct-30 19:09N 01°15' E 103°41'0 0.0
2017-Oct-30 18:57N 01°15' E 103°41'0 0.0
2017-Oct-30 17:18N 01°15' E 103°41'0 0.0
2017-Oct-30 16:48N 01°15' E 103°41'0 0.0
2017-Oct-30 16:30N 01°15' E 103°41'0 0.0
2017-Oct-30 14:12N 01°15' E 103°41'0 0.0
2017-Oct-30 09:45N 01°15' E 103°41'0 0.0
2017-Oct-30 09:30N 01°15' E 103°41'0 0.0
2017-Oct-30 08:57N 01°15' E 103°41'0 0.0
2017-Oct-30 08:30N 01°15' E 103°41'0 0.0
2017-Oct-30 07:54N 01°15' E 103°41'0 0.0
2017-Oct-30 07:24N 01°15' E 103°41'0 0.0
2017-Oct-30 06:54N 01°15' E 103°41'0 0.0
2017-Oct-30 06:30N 01°15' E 103°41'0 0.0
2017-Oct-30 05:48N 01°15' E 103°41'0 0.0
2017-Oct-30 04:36N 01°15' E 103°41'0 0.0
2017-Oct-30 04:30N 01°15' E 103°41'0 0.0
2017-Oct-30 03:54N 01°15' E 103°41'0 0.0
2017-Oct-30 03:30N 01°15' E 103°41'0 0.0
2017-Oct-30 02:54N 01°15' E 103°41'0 0.0
2017-Oct-30 02:06N 01°15' E 103°41'0 0.0
2017-Oct-30 01:48N 01°15' E 103°41'0 0.0
2017-Oct-30 01:21N 01°15' E 103°41'0 0.0
2017-Oct-30 00:54N 01°15' E 103°41'0 0.0
2017-Oct-30 00:27N 01°15' E 103°41'0 0.0
2017-Oct-29 23:39N 01°15' E 103°41'0 0.0
2017-Oct-29 23:30N 01°15' E 103°41'0 0.0
2017-Oct-29 22:57N 01°15' E 103°41'0 0.0
2017-Oct-29 22:30N 01°15' E 103°41'0 0.0
2017-Oct-29 21:51N 01°15' E 103°41'0 0.0
2017-Oct-29 21:30N 01°15' E 103°41'0 0.0
2017-Oct-29 20:54N 01°15' E 103°41'0 0.0
2017-Oct-29 20:12N 01°15' E 103°41'0 0.0
2017-Oct-29 19:48N 01°15' E 103°41'0 0.0
2017-Oct-29 19:21N 01°15' E 103°41'0 0.0
2017-Oct-29 18:18N 01°15' E 103°41'0 0.0
2017-Oct-29 17:57N 01°15' E 103°41'0 0.0
2017-Oct-29 17:21N 01°15' E 103°41'0 0.0
2017-Oct-29 16:51N 01°15' E 103°41'0 0.0
2017-Oct-29 16:24N 01°15' E 103°41'0 0.0
2017-Oct-29 15:57N 01°15' E 103°41'0 0.0
2017-Oct-29 15:30N 01°15' E 103°41'0 0.0
2017-Oct-29 14:54N 01°15' E 103°41'0 0.0
2017-Oct-29 14:24N 01°15' E 103°41'0 0.0
2017-Oct-29 13:57N 01°15' E 103°41'0 0.0
2017-Oct-29 13:27N 01°15' E 103°41'0 0.0
2017-Oct-29 12:51N 01°15' E 103°41'0 0.0
2017-Oct-29 11:59N 01°15' E 103°41'0 0.0
2017-Oct-29 11:30N 01°15' E 103°41'1 1.9
2017-Oct-29 11:01N 01°14' E 103°42'3 6.8
2017-Oct-29 10:30N 01°13' E 103°38'0 0.9
2017-Oct-29 09:59N 01°13' E 103°38'0 0.1
2017-Oct-29 08:45N 01°13' E 103°38'0 0.1
2017-Oct-29 08:12N 01°13' E 103°38'0 0.0
2017-Oct-29 08:00N 01°13' E 103°38'0 0.0
2017-Oct-29 07:21N 01°13' E 103°38'0 0.0
2017-Oct-29 07:00N 01°13' E 103°38'0 0.0
2017-Oct-29 06:30N 01°13' E 103°38'0 0.1
2017-Oct-29 05:51N 01°14' E 103°38'0 0.0
2017-Oct-29 05:27N 01°14' E 103°38'0 0.0
2017-Oct-29 04:57N 01°14' E 103°38'0 0.0
2017-Oct-29 04:30N 01°13' E 103°38'0 0.0
2017-Oct-29 03:48N 01°13' E 103°38'0 0.0
2017-Oct-28 19:00N 01°13' E 103°38'0 0.0
2017-Oct-28 16:24N 01°13' E 103°38'0 0.0
2017-Oct-28 15:51N 01°13' E 103°38'0 0.0
2017-Oct-28 15:27N 01°13' E 103°38'0 0.1
2017-Oct-28 14:42N 01°13' E 103°38'0 0.2
2017-Oct-28 14:24N 01°13' E 103°38'0 0.0
2017-Oct-28 11:45N 01°13' E 103°38'0 0.0
2017-Oct-28 10:03N 01°13' E 103°38'0 0.1
2017-Oct-28 09:51N 01°13' E 103°38'0 0.0
2017-Oct-28 09:30N 01°13' E 103°38'0 0.0
2017-Oct-28 08:33N 01°13' E 103°38'0 0.0
2017-Oct-28 08:21N 01°13' E 103°38'0 0.0
2017-Oct-28 07:57N 01°13' E 103°38'0 0.0
2017-Oct-28 07:09N 01°13' E 103°38'0 0.0
2017-Oct-28 06:48N 01°13' E 103°38'0 0.0
2017-Oct-28 06:30N 01°13' E 103°38'0 0.0
2017-Oct-28 05:48N 01°13' E 103°38'0 0.0
2017-Oct-28 05:27N 01°13' E 103°38'0 0.0
2017-Oct-28 04:24N 01°13' E 103°38'0 0.0
2017-Oct-28 03:36N 01°13' E 103°38'0 0.0
2017-Oct-28 03:27N 01°13' E 103°38'0 0.1
2017-Oct-28 02:48N 01°13' E 103°38'0 0.1
2017-Oct-28 02:15N 01°13' E 103°38'0 0.0
2017-Oct-28 01:54N 01°13' E 103°38'0 0.1
2017-Oct-28 01:27N 01°13' E 103°38'0 0.0
2017-Oct-28 00:39N 01°13' E 103°38'0 0.0
2017-Oct-28 00:27N 01°13' E 103°38'0 0.0
2017-Oct-27 23:54N 01°13' E 103°38'0 0.0
2017-Oct-27 22:18N 01°13' E 103°38'0 0.0
2017-Oct-27 21:54N 01°13' E 103°38'0 0.0
2017-Oct-27 20:42N 01°13' E 103°38'0 0.0
2017-Oct-27 20:27N 01°13' E 103°38'0 0.0
2017-Oct-27 19:57N 01°13' E 103°38'0 0.0
2017-Oct-27 19:27N 01°13' E 103°38'0 0.0
2017-Oct-27 18:51N 01°13' E 103°38'0 0.0
2017-Oct-27 16:48N 01°13' E 103°38'0 0.0
2017-Oct-27 15:33N 01°13' E 103°38'0 0.0
2017-Oct-27 14:15N 01°13' E 103°38'0 0.0
2017-Oct-27 13:27N 01°13' E 103°38'0 0.1
2017-Oct-27 12:42N 01°13' E 103°38'0 0.0
2017-Oct-27 11:42N 01°13' E 103°38'0 0.2
2017-Oct-27 11:27N 01°13' E 103°38'0 0.1
2017-Oct-27 10:54N 01°13' E 103°38'0 0.0
2017-Oct-27 10:15N 01°13' E 103°38'0 0.0
2017-Oct-27 09:42N 01°13' E 103°38'0 0.0
2017-Oct-27 09:24N 01°13' E 103°38'0 0.0
2017-Oct-27 08:57N 01°13' E 103°38'0 0.0
2017-Oct-27 08:24N 01°13' E 103°38'0 0.0
2017-Oct-27 07:57N 01°13' E 103°38'0 0.0
2017-Oct-27 06:51N 01°13' E 103°38'0 0.0
2017-Oct-27 06:27N 01°13' E 103°38'0 0.0
2017-Oct-27 05:51N 01°13' E 103°38'0 0.0
2017-Oct-27 05:21N 01°13' E 103°38'0 0.0
2017-Oct-27 04:57N 01°13' E 103°38'0 0.1
2017-Oct-27 04:30N 01°13' E 103°38'0 0.0
2017-Oct-27 03:57N 01°13' E 103°38'0 0.0
2017-Oct-27 03:30N 01°13' E 103°38'0 0.0
2017-Oct-27 02:54N 01°14' E 103°38'0 0.0
2017-Oct-27 02:30N 01°14' E 103°38'0 0.0
2017-Oct-27 01:54N 01°14' E 103°38'0 0.0
2017-Oct-27 01:27N 01°13' E 103°38'0 0.0
2017-Oct-26 23:48N 01°13' E 103°38'0 0.0
2017-Oct-26 23:21N 01°13' E 103°38'0 0.2
2017-Oct-26 22:57N 01°13' E 103°38'0 0.1
2017-Oct-26 22:27N 01°13' E 103°38'0 0.0
2017-Oct-26 21:54N 01°13' E 103°38'0 0.0
2017-Oct-26 21:18N 01°13' E 103°38'0 0.0
2017-Oct-26 20:36N 01°13' E 103°38'0 0.1
2017-Oct-26 20:12N 01°13' E 103°38'0 0.2
2017-Oct-26 19:51N 01°13' E 103°38'0 0.1
2017-Oct-26 19:21N 01°13' E 103°38'0 0.0
2017-Oct-26 18:57N 01°13' E 103°38'0 0.1
2017-Oct-26 18:27N 01°13' E 103°38'0 0.1
2017-Oct-26 17:57N 01°13' E 103°38'0 0.1
2017-Oct-26 16:48N 01°13' E 103°38'0 0.0
2017-Oct-26 16:24N 01°13' E 103°38'0 0.1
2017-Oct-26 15:51N 01°13' E 103°38'0 0.2
2017-Oct-26 15:27N 01°13' E 103°38'0 0.0
2017-Oct-26 14:39N 01°13' E 103°38'0 0.0
2017-Oct-26 14:15N 01°13' E 103°38'0 0.0
2017-Oct-26 13:54N 01°13' E 103°38'0 0.0
2017-Oct-26 13:06N 01°13' E 103°38'0 0.0
2017-Oct-26 12:39N 01°13' E 103°38'0 0.0
2017-Oct-26 12:21N 01°13' E 103°38'0 0.0
2017-Oct-26 11:12N 01°13' E 103°38'0 0.0
2017-Oct-26 09:39N 01°13' E 103°38'0 0.0
2017-Oct-26 09:30N 01°13' E 103°38'0 0.0
2017-Oct-26 08:57N 01°13' E 103°38'0 0.0
2017-Oct-26 07:54N 01°13' E 103°38'0 0.0
2017-Oct-26 07:27N 01°13' E 103°38'0 0.1
2017-Oct-26 06:57N 01°13' E 103°38'0 0.0
2017-Oct-26 06:27N 01°14' E 103°38'0 0.0
2017-Oct-26 05:57N 01°13' E 103°38'0 0.0
2017-Oct-26 05:30N 01°14' E 103°38'0 0.0
2017-Oct-26 04:51N 01°13' E 103°38'0 0.0
2017-Oct-26 04:30N 01°14' E 103°38'0 0.0
2017-Oct-26 04:00N 01°14' E 103°38'0 0.0
2017-Oct-26 03:30N 01°13' E 103°38'0 0.1
2017-Oct-26 02:57N 01°13' E 103°38'0 0.0
2017-Oct-26 02:21N 01°13' E 103°38'0 0.0
2017-Oct-26 01:57N 01°13' E 103°38'0 0.0
2017-Oct-26 01:30N 01°13' E 103°38'0 0.0
2017-Oct-26 00:51N 01°13' E 103°38'0 0.1
2017-Oct-26 00:15N 01°13' E 103°38'0 0.0
2017-Oct-25 23:54N 01°13' E 103°38'0 0.0
2017-Oct-25 23:30N 01°13' E 103°38'0 0.0
2017-Oct-25 22:57N 01°13' E 103°38'0 0.0
2017-Oct-25 22:18N 01°13' E 103°38'0 0.0
2017-Oct-25 21:54N 01°13' E 103°38'0 0.0
2017-Oct-25 21:27N 01°13' E 103°38'0 0.0
2017-Oct-25 20:54N 01°13' E 103°38'0 0.0
2017-Oct-25 20:27N 01°13' E 103°38'0 0.0
2017-Oct-25 19:57N 01°13' E 103°38'0 0.1
2017-Oct-25 19:27N 01°13' E 103°38'0 0.1
2017-Oct-25 18:54N 01°13' E 103°38'0 0.0
2017-Oct-25 18:21N 01°13' E 103°38'0 0.0
2017-Oct-25 17:54N 01°13' E 103°38'0 0.0
2017-Oct-25 17:27N 01°13' E 103°38'0 0.1
2017-Oct-25 16:54N 01°13' E 103°38'0 0.0
2017-Oct-25 16:30N 01°13' E 103°38'0 0.0
2017-Oct-25 15:51N 01°13' E 103°38'0 0.0
2017-Oct-25 15:27N 01°13' E 103°38'0 0.0
2017-Oct-25 14:57N 01°13' E 103°38'0 0.0
2017-Oct-25 14:30N 01°13' E 103°38'0 0.1
2017-Oct-25 13:51N 01°13' E 103°38'0 0.0
2017-Oct-25 13:30N 01°13' E 103°38'0 0.1
2017-Oct-25 12:57N 01°13' E 103°38'0 0.0
2017-Oct-25 12:30N 01°13' E 103°38'0 0.0
2017-Oct-25 11:57N 01°13' E 103°38'0 0.0
2017-Oct-25 11:30N 01°13' E 103°38'0 0.0
2017-Oct-25 10:57N 01°13' E 103°38'0 0.2
2017-Oct-25 10:12N 01°13' E 103°38'0 0.0
2017-Oct-25 09:57N 01°13' E 103°38'0 0.0
2017-Oct-25 09:30N 01°13' E 103°38'0 0.0
2017-Oct-25 08:30N 01°13' E 103°38'0 0.0
2017-Oct-25 07:54N 01°13' E 103°38'0 0.0
2017-Oct-25 07:24N 01°13' E 103°38'0 0.1
2017-Oct-25 06:57N 01°13' E 103°38'0 0.0
2017-Oct-25 06:27N 01°13' E 103°38'0 0.1
2017-Oct-25 05:57N 01°13' E 103°38'0 0.0
2017-Oct-25 05:30N 01°13' E 103°38'0 0.0
2017-Oct-25 04:57N 01°13' E 103°38'0 0.0
2017-Oct-25 04:24N 01°13' E 103°38'0 0.1
2017-Oct-25 03:51N 01°13' E 103°38'0 0.1
2017-Oct-25 03:24N 01°13' E 103°38'0 0.0
2017-Oct-25 02:51N 01°13' E 103°38'0 0.0
2017-Oct-25 02:30N 01°13' E 103°38'0 0.0
2017-Oct-25 01:57N 01°13' E 103°38'0 0.0
2017-Oct-25 01:30N 01°13' E 103°38'0 0.0
2017-Oct-25 00:57N 01°13' E 103°38'0 0.0
2017-Oct-25 00:24N 01°13' E 103°38'0 0.0
2017-Oct-24 23:45N 01°13' E 103°38'0 0.0
2017-Oct-24 23:30N 01°13' E 103°38'0 0.0
2017-Oct-24 22:48N 01°13' E 103°38'0 0.0
2017-Oct-24 22:27N 01°13' E 103°38'0 0.0
2017-Oct-24 21:42N 01°13' E 103°38'0 0.0
2017-Oct-24 21:30N 01°13' E 103°38'0 0.0
2017-Oct-24 20:57N 01°13' E 103°38'0 0.0
2017-Oct-24 20:30N 01°13' E 103°38'0 0.0
2017-Oct-24 19:54N 01°13' E 103°38'0 0.0
2017-Oct-24 19:30N 01°13' E 103°38'0 0.0
2017-Oct-24 18:57N 01°13' E 103°38'0 0.0
2017-Oct-24 18:27N 01°13' E 103°38'0 0.0
2017-Oct-24 17:59N 01°13' E 103°38'1 1.2
2017-Oct-24 17:29N 01°13' E 103°38'2 4.7
2017-Oct-24 17:00N 01°12' E 103°36'1 1.7
2017-Oct-24 16:30N 01°12' E 103°35'3 5.7
2017-Oct-24 15:59N 01°12' E 103°33'3 5.8
2017-Oct-24 15:30N 01°11' E 103°30'  

Dump ship's entire track history